Time;durP1;ratioP1;P1;durP2;ratioP2;P2;SDS_P1;SDS_P2;PMS_P1;PMS_P2;Temp;Humidity;BMP_temperature;BMP_pressure;BME280_temperature;BME280_humidity;BME280_pressure;Samples;Min_cycle;Max_cycle;Signal;HPM_P1;HPM_P2
2022/01/08 00:00:46;;;;;;;5.70;2.92;;;;;;;;;;5028156;28;20214;-78
2022/01/08 00:03:13;;;;;;;4.85;3.75;;;;;;;;;;5036947;28;20210;-78
2022/01/08 00:05:40;;;;;;;5.13;3.00;;;;;;;;;;5049873;28;20310;-78
2022/01/08 00:08:08;;;;;;;4.70;2.95;;;;;;;;;;5035457;28;20203;-77
2022/01/08 00:10:35;;;;;;;3.20;2.92;;;;;;;;;;5032556;28;20694;-77
2022/01/08 00:13:05;;;;;;;6.82;3.30;;;;;;;;;;5047895;28;20207;-78
2022/01/08 00:15:32;;;;;;;3.75;3.05;;;;;;;;;;5047943;28;20226;-79
2022/01/08 00:18:01;;;;;;;5.13;3.38;;;;;;;;;;5046920;28;20199;-79
2022/01/08 00:20:28;;;;;;;6.20;3.03;;;;;;;;;;5048875;28;20209;-78
2022/01/08 00:22:56;;;;;;;3.63;3.33;;;;;;;;;;5047477;28;20237;-78
2022/01/08 00:25:23;;;;;;;5.13;3.60;;;;;;;;;;5032206;28;20216;-79
2022/01/08 00:27:51;;;;;;;5.10;3.20;;;;;;;;;;5033022;28;20202;-80
2022/01/08 00:30:18;;;;;;;4.13;3.53;;;;;;;;;;5040853;28;20254;-79
2022/01/08 00:32:45;;;;;;;5.05;4.28;;;;;;;;;;5044277;28;20195;-79
2022/01/08 00:35:14;;;;;;;3.40;3.10;;;;;;;;;;5035474;28;20986;-80
2022/01/08 00:37:41;;;;;;;5.20;3.70;;;;;;;;;;5045327;28;20206;-80
2022/01/08 00:40:09;;;;;;;4.32;3.30;;;;;;;;;;5035045;28;20195;-79
2022/01/08 00:42:36;;;;;;;4.68;3.45;;;;;;;;;;5033438;28;20191;-80
2022/01/08 00:45:04;;;;;;;3.80;3.40;;;;;;;;;;5030627;28;20215;-79
2022/01/08 00:47:31;;;;;;;4.32;3.70;;;;;;;;;;5035432;28;20214;-79
2022/01/08 00:49:58;;;;;;;3.00;2.65;;;;;;;;;;5045685;28;20597;-79
2022/01/08 00:52:27;;;;;;;3.65;3.15;;;;;;;;;;5037747;28;20206;-80
2022/01/08 00:54:54;;;;;;;5.90;3.30;;;;;;;;;;5043863;28;20654;-78
2022/01/08 00:57:21;;;;;;;3.10;2.83;;;;;;;;;;5030050;28;20658;-77
2022/01/08 00:59:48;;;;;;;3.95;2.78;;;;;;;;;;5037025;28;20214;-78
2022/01/08 01:02:15;;;;;;;7.60;3.45;;;;;;;;;;5033310;28;20207;-78
2022/01/08 01:04:42;;;;;;;3.25;2.55;;;;;;;;;;5031361;28;20310;-78
2022/01/08 01:07:09;;;;;;;4.00;3.35;;;;;;;;;;5043699;28;20202;-78
2022/01/08 01:09:38;;;;;;;4.82;3.15;;;;;;;;;;5030644;28;20199;-78
2022/01/08 01:12:05;;;;;;;3.88;2.20;;;;;;;;;;5037914;28;20203;-78
2022/01/08 01:14:32;;;;;;;3.10;2.80;;;;;;;;;;5035127;28;20210;-78
2022/01/08 01:16:59;;;;;;;6.40;3.50;;;;;;;;;;5040994;28;20192;-78
2022/01/08 01:19:26;;;;;;;4.40;2.80;;;;;;;;;;5035305;28;20203;-77
2022/01/08 01:21:55;;;;;;;7.65;3.30;;;;;;;;;;5034617;28;20203;-77
2022/01/08 01:24:24;;;;;;;3.53;2.80;;;;;;;;;;5035012;28;20514;-77
2022/01/08 01:27:17;;;;;;;4.63;3.25;;;;;;;;;;5045773;28;20244;-77
2022/01/08 01:29:52;;;;;;;3.67;2.85;;;;;;;;;;5044767;28;20303;-78
2022/01/08 01:43:28;;;;;;;3.38;3.08;;;;;;;;;;5032821;28;20459;-77
2022/01/08 01:48:40;;;;;;;4.03;3.20;;;;;;;;;;5041973;28;20198;-80
2022/01/08 01:51:07;;;;;;;5.03;4.00;;;;;;;;;;5033936;28;20211;-77
2022/01/08 01:53:34;;;;;;;4.00;3.00;;;;;;;;;;5035933;28;20650;-79
2022/01/08 01:56:01;;;;;;;4.03;3.38;;;;;;;;;;5043949;28;20288;-79
2022/01/08 01:58:30;;;;;;;4.45;3.28;;;;;;;;;;5046721;28;20660;-78
2022/01/08 02:00:57;;;;;;;4.32;3.60;;;;;;;;;;5047020;28;20673;-78
2022/01/08 02:03:24;;;;;;;3.20;2.78;;;;;;;;;;5046141;28;20195;-79
2022/01/08 02:05:51;;;;;;;6.00;2.58;;;;;;;;;;5040455;28;20218;-79
2022/01/08 02:08:18;;;;;;;3.83;3.00;;;;;;;;;;5046669;28;20221;-80
2022/01/08 02:10:45;;;;;;;5.13;4.63;;;;;;;;;;5039911;28;20200;-78
2022/01/08 02:13:12;;;;;;;4.68;3.30;;;;;;;;;;5049716;28;20209;-78
2022/01/08 02:15:43;;;;;;;3.95;3.08;;;;;;;;;;5046633;28;20195;-79
2022/01/08 02:18:10;;;;;;;2.95;2.67;;;;;;;;;;5031047;28;20582;-80
2022/01/08 02:20:39;;;;;;;4.22;3.33;;;;;;;;;;5037149;28;20663;-79
2022/01/08 02:23:06;;;;;;;5.70;4.00;;;;;;;;;;5030699;28;20217;-78
2022/01/08 02:25:33;;;;;;;5.03;3.80;;;;;;;;;;5047712;28;20585;-78
2022/01/08 02:28:00;;;;;;;6.72;4.45;;;;;;;;;;5048717;28;20191;-78
2022/01/08 02:30:27;;;;;;;3.53;3.20;;;;;;;;;;5044900;28;20202;-80
2022/01/08 02:32:54;;;;;;;3.90;3.42;;;;;;;;;;5040070;28;20639;-79
2022/01/08 02:35:22;;;;;;;3.60;3.30;;;;;;;;;;5045464;28;20234;-78
2022/01/08 02:37:51;;;;;;;4.70;3.88;;;;;;;;;;5045865;28;20645;-78
2022/01/08 02:40:19;;;;;;;6.72;4.82;;;;;;;;;;5039901;28;20549;-77
2022/01/08 02:42:52;;;;;;;8.00;3.47;;;;;;;;;;5043954;28;20195;-79
2022/01/08 02:45:19;;;;;;;4.40;3.95;;;;;;;;;;5043890;28;20794;-77
2022/01/08 02:47:46;;;;;;;7.93;3.90;;;;;;;;;;5041772;28;20210;-76
2022/01/08 02:50:13;;;;;;;5.28;3.85;;;;;;;;;;5047250;28;20214;-77
2022/01/08 02:52:43;;;;;;;5.70;4.35;;;;;;;;;;5038849;28;20634;-77
2022/01/08 02:55:14;;;;;;;4.03;3.40;;;;;;;;;;5038338;28;20218;-77
2022/01/08 02:57:41;;;;;;;5.13;3.97;;;;;;;;;;5036894;28;20198;-76
2022/01/08 03:00:10;;;;;;;4.53;3.97;;;;;;;;;;5040754;28;20215;-77
2022/01/08 03:02:41;;;;;;;3.85;3.50;;;;;;;;;;5044950;28;20199;-77
2022/01/08 03:05:10;;;;;;;4.65;4.25;;;;;;;;;;5049283;28;20621;-77
2022/01/08 03:07:38;;;;;;;3.67;3.38;;;;;;;;;;5047528;28;20202;-78
2022/01/08 03:10:05;;;;;;;4.53;3.78;;;;;;;;;;5042020;28;20202;-77
2022/01/08 03:12:33;;;;;;;4.55;4.15;;;;;;;;;;5049147;28;20709;-77
2022/01/08 03:15:00;;;;;;;8.20;4.30;;;;;;;;;;5041092;28;20933;-77
2022/01/08 03:17:27;;;;;;;5.03;3.70;;;;;;;;;;5044529;28;20207;-77
2022/01/08 03:20:02;;;;;;;5.18;4.68;;;;;;;;;;5035203;28;20195;-77
2022/01/08 03:22:29;;;;;;;5.72;4.47;;;;;;;;;;5049725;28;20283;-77
2022/01/08 03:24:56;;;;;;;4.70;4.25;;;;;;;;;;5051228;28;20224;-77
2022/01/08 03:27:24;;;;;;;5.22;4.05;;;;;;;;;;5053083;28;20195;-77
2022/01/08 03:29:52;;;;;;;7.90;5.00;;;;;;;;;;5032554;28;20207;-77
2022/01/08 03:32:19;;;;;;;5.13;3.88;;;;;;;;;;5049201;28;20202;-77
2022/01/08 03:34:47;;;;;;;6.80;4.72;;;;;;;;;;5048546;28;20577;-76
2022/01/08 03:37:14;;;;;;;5.68;4.15;;;;;;;;;;5047095;28;20199;-76
2022/01/08 03:39:41;;;;;;;7.13;5.50;;;;;;;;;;5048163;28;20199;-76
2022/01/08 03:42:08;;;;;;;5.95;4.75;;;;;;;;;;5044625;28;20199;-76
2022/01/08 03:44:35;;;;;;;7.30;4.85;;;;;;;;;;5040653;28;20195;-76
2022/01/08 03:47:23;;;;;;;6.40;4.80;;;;;;;;;;5034156;28;20200;-77
2022/01/08 03:49:50;;;;;;;6.75;5.10;;;;;;;;;;5040347;28;20202;-77
2022/01/08 03:52:17;;;;;;;7.07;5.03;;;;;;;;;;5043510;28;20207;-76
2022/01/08 03:54:44;;;;;;;6.53;4.78;;;;;;;;;;5030841;28;20199;-76
2022/01/08 03:57:11;;;;;;;7.38;5.18;;;;;;;;;;5044793;28;20202;-75
2022/01/08 03:59:38;;;;;;;9.93;5.03;;;;;;;;;;5035647;28;20205;-76
2022/01/08 04:02:07;;;;;;;12.60;4.90;;;;;;;;;;5046392;28;20273;-76
2022/01/08 04:04:34;;;;;;;6.63;5.18;;;;;;;;;;5048336;28;20229;-76
2022/01/08 04:07:01;;;;;;;5.75;5.03;;;;;;;;;;5038829;28;20199;-76
2022/01/08 04:09:28;;;;;;;8.05;5.63;;;;;;;;;;5030396;28;20586;-76
2022/01/08 04:11:56;;;;;;;5.57;4.00;;;;;;;;;;5042654;28;20210;-76
2022/01/08 04:14:25;;;;;;;5.25;4.50;;;;;;;;;;5047467;28;20207;-76
2022/01/08 04:16:53;;;;;;;8.88;6.00;;;;;;;;;;5046590;28;20720;-76
2022/01/08 04:19:22;;;;;;;7.75;4.80;;;;;;;;;;5043236;28;20628;-76
2022/01/08 04:21:59;;;;;;;11.30;5.75;;;;;;;;;;5040629;28;20641;-76
2022/01/08 04:24:27;;;;;;;7.28;5.70;;;;;;;;;;5039234;28;20612;-76
2022/01/08 04:26:54;;;;;;;9.68;6.40;;;;;;;;;;5044391;28;20230;-77
2022/01/08 04:29:21;;;;;;;7.72;5.60;;;;;;;;;;5036554;28;20200;-78
2022/01/08 04:31:48;;;;;;;6.10;5.13;;;;;;;;;;5045972;28;20677;-76
2022/01/08 04:34:15;;;;;;;9.13;5.55;;;;;;;;;;5032081;28;20654;-77
2022/01/08 04:36:44;;;;;;;9.98;6.18;;;;;;;;;;5040113;28;20196;-77
2022/01/08 04:39:11;;;;;;;6.22;5.32;;;;;;;;;;5048265;28;20229;-78
2022/01/08 04:41:38;;;;;;;8.52;6.13;;;;;;;;;;5049786;28;20203;-78
2022/01/08 04:44:07;;;;;;;7.00;4.72;;;;;;;;;;5042402;28;20198;-79
2022/01/08 04:46:34;;;;;;;6.97;4.75;;;;;;;;;;5036028;28;20292;-79
2022/01/08 04:49:01;;;;;;;7.70;6.40;;;;;;;;;;5041305;28;20195;-78
2022/01/08 04:51:28;;;;;;;8.40;6.20;;;;;;;;;;5047417;28;20510;-79
2022/01/08 04:53:56;;;;;;;11.88;7.35;;;;;;;;;;5039432;28;20198;-78
2022/01/08 04:56:23;;;;;;;12.18;7.00;;;;;;;;;;5039888;28;20202;-78
2022/01/08 04:58:51;;;;;;;12.93;7.35;;;;;;;;;;5031967;28;20673;-79
2022/01/08 05:01:19;;;;;;;9.32;6.18;;;;;;;;;;5036402;28;20211;-78
2022/01/08 05:03:46;;;;;;;9.68;6.72;;;;;;;;;;5047021;28;20203;-78
2022/01/08 05:06:13;;;;;;;9.93;6.47;;;;;;;;;;5049076;28;20218;-78
2022/01/08 05:08:40;;;;;;;7.45;5.88;;;;;;;;;;5039949;28;20199;-76
2022/01/08 05:11:08;;;;;;;7.43;6.63;;;;;;;;;;5043788;28;20206;-76
2022/01/08 05:13:37;;;;;;;14.07;7.68;;;;;;;;;;5045227;28;20690;-76
2022/01/08 05:16:05;;;;;;;8.20;6.15;;;;;;;;;;5044004;28;20624;-79
2022/01/08 05:18:33;;;;;;;9.60;6.93;;;;;;;;;;5048876;28;20194;-79
2022/01/08 05:21:11;;;;;;;9.15;6.65;;;;;;;;;;5037637;28;20294;-79
2022/01/08 05:23:38;;;;;;;9.80;6.78;;;;;;;;;;5032734;28;20199;-79
2022/01/08 05:26:05;;;;;;;8.73;7.05;;;;;;;;;;5037554;28;20218;-78
2022/01/08 05:28:33;;;;;;;9.98;6.75;;;;;;;;;;5030193;28;20203;-79
2022/01/08 05:31:00;;;;;;;12.25;7.55;;;;;;;;;;5028455;28;20199;-79
2022/01/08 05:33:28;;;;;;;12.07;8.35;;;;;;;;;;5042172;28;20195;-79
2022/01/08 05:35:55;;;;;;;9.65;7.40;;;;;;;;;;5044485;28;20198;-78
2022/01/08 05:38:22;;;;;;;11.57;6.57;;;;;;;;;;5044313;28;20203;-77
2022/01/08 05:40:49;;;;;;;6.90;6.28;;;;;;;;;;5044291;28;20196;-77
2022/01/08 05:43:16;;;;;;;13.02;7.28;;;;;;;;;;5045557;28;20653;-77
2022/01/08 05:45:44;;;;;;;10.23;8.13;;;;;;;;;;5033033;28;20681;-79
2022/01/08 05:48:12;;;;;;;12.98;6.80;;;;;;;;;;5029565;28;20675;-79
2022/01/08 05:50:40;;;;;;;14.98;8.07;;;;;;;;;;5033397;28;20203;-78
2022/01/08 05:53:07;;;;;;;10.15;7.78;;;;;;;;;;5037087;28;20613;-79
2022/01/08 05:55:34;;;;;;;9.90;6.68;;;;;;;;;;5048210;28;20210;-80
2022/01/08 05:58:01;;;;;;;10.15;6.65;;;;;;;;;;5048155;28;20206;-79
2022/01/08 06:00:28;;;;;;;9.07;6.70;;;;;;;;;;5046308;28;20199;-78
2022/01/08 06:02:57;;;;;;;9.32;6.63;;;;;;;;;;5047047;28;20210;-77
2022/01/08 06:05:25;;;;;;;10.35;8.23;;;;;;;;;;5043851;28;20243;-77
2022/01/08 06:07:52;;;;;;;9.57;7.55;;;;;;;;;;5034517;28;20244;-77
2022/01/08 06:10:19;;;;;;;8.70;5.70;;;;;;;;;;5037060;28;20198;-77
2022/01/08 06:12:46;;;;;;;7.82;5.70;;;;;;;;;;5045860;28;20649;-77
2022/01/08 06:15:14;;;;;;;13.68;6.53;;;;;;;;;;5032933;28;20211;-77
2022/01/08 06:17:41;;;;;;;9.23;6.93;;;;;;;;;;5026485;28;20195;-78
2022/01/08 06:20:10;;;;;;;8.18;6.20;;;;;;;;;;5033760;28;20195;-78
2022/01/08 06:22:37;;;;;;;7.63;6.82;;;;;;;;;;5037853;28;20195;-78
2022/01/08 06:25:04;;;;;;;9.27;7.20;;;;;;;;;;5047169;28;20654;-77
2022/01/08 06:27:31;;;;;;;10.32;6.40;;;;;;;;;;5037980;28;20243;-78
2022/01/08 06:29:58;;;;;;;9.48;6.63;;;;;;;;;;5042018;28;20206;-78
2022/01/08 06:32:25;;;;;;;8.93;6.70;;;;;;;;;;5031505;28;20203;-78
2022/01/08 06:34:52;;;;;;;10.23;6.43;;;;;;;;;;5038123;28;20202;-78
2022/01/08 06:37:21;;;;;;;8.95;6.55;;;;;;;;;;5042313;28;20195;-78
2022/01/08 06:39:49;;;;;;;9.23;6.28;;;;;;;;;;5050682;28;20211;-78
2022/01/08 06:42:16;;;;;;;9.75;6.93;;;;;;;;;;5044136;28;20246;-78
2022/01/08 06:44:43;;;;;;;8.27;6.10;;;;;;;;;;5042747;28;20199;-78
2022/01/08 06:47:10;;;;;;;10.93;8.60;;;;;;;;;;5035108;28;20223;-78
2022/01/08 06:49:37;;;;;;;8.55;7.07;;;;;;;;;;5043530;28;20192;-78
2022/01/08 06:52:04;;;;;;;9.55;6.90;;;;;;;;;;5047189;28;20547;-77
2022/01/08 06:54:32;;;;;;;9.55;6.85;;;;;;;;;;5042705;28;20210;-77
2022/01/08 06:57:00;;;;;;;9.40;7.72;;;;;;;;;;5047108;28;20638;-77
2022/01/08 06:59:27;;;;;;;8.00;7.07;;;;;;;;;;5036786;28;20205;-77
2022/01/08 07:01:54;;;;;;;10.35;6.53;;;;;;;;;;5044190;28;20195;-77
2022/01/08 07:04:21;;;;;;;12.15;8.05;;;;;;;;;;5048013;28;20210;-78
2022/01/08 07:06:48;;;;;;;7.57;6.80;;;;;;;;;;5043800;28;20223;-78
2022/01/08 07:09:15;;;;;;;8.60;6.47;;;;;;;;;;5033890;28;20203;-78
2022/01/08 07:11:43;;;;;;;7.60;6.88;;;;;;;;;;5052654;28;20202;-78
2022/01/08 07:14:10;;;;;;;12.07;7.13;;;;;;;;;;5045186;28;20755;-78
2022/01/08 07:16:37;;;;;;;11.20;8.27;;;;;;;;;;5048221;28;20206;-79
2022/01/08 07:19:04;;;;;;;11.18;8.27;;;;;;;;;;5046738;28;20203;-78
2022/01/08 07:21:31;;;;;;;9.38;7.15;;;;;;;;;;5046199;28;20196;-78
2022/01/08 07:23:58;;;;;;;9.55;7.18;;;;;;;;;;5047694;28;20222;-78
2022/01/08 07:26:26;;;;;;;9.38;7.25;;;;;;;;;;5039527;28;20589;-78
2022/01/08 07:28:54;;;;;;;8.93;6.78;;;;;;;;;;5040007;28;20199;-77
2022/01/08 07:31:22;;;;;;;12.70;7.95;;;;;;;;;;5043118;28;20325;-77
2022/01/08 07:33:50;;;;;;;9.00;7.10;;;;;;;;;;5045821;28;20669;-77
2022/01/08 07:36:18;;;;;;;11.50;8.00;;;;;;;;;;5044942;28;20404;-77
2022/01/08 07:38:45;;;;;;;15.88;8.68;;;;;;;;;;5038802;28;20539;-77
2022/01/08 07:41:12;;;;;;;9.90;7.72;;;;;;;;;;5037940;28;20674;-77
2022/01/08 07:43:40;;;;;;;12.00;8.05;;;;;;;;;;5045700;28;20199;-77
2022/01/08 07:46:08;;;;;;;10.00;7.15;;;;;;;;;;5040910;28;20231;-77
2022/01/08 07:48:35;;;;;;;9.40;8.20;;;;;;;;;;5048721;28;20559;-77
2022/01/08 07:51:02;;;;;;;15.15;9.70;;;;;;;;;;5051076;28;20199;-77
2022/01/08 07:53:29;;;;;;;16.83;9.73;;;;;;;;;;5032101;28;20682;-77
2022/01/08 07:55:56;;;;;;;9.55;7.68;;;;;;;;;;5040559;28;20550;-76
2022/01/08 07:58:23;;;;;;;13.23;8.70;;;;;;;;;;5045318;28;20779;-76
2022/01/08 08:00:51;;;;;;;11.50;8.45;;;;;;;;;;5049533;28;20202;-76
2022/01/08 08:03:19;;;;;;;10.43;9.00;;;;;;;;;;5032176;28;20195;-76
2022/01/08 08:08:50;;;;;;;13.82;7.90;;;;;;;;;;5044973;28;20232;-76
2022/01/08 08:11:17;;;;;;;9.48;8.23;;;;;;;;;;5046141;28;20199;-76
2022/01/08 08:13:44;;;;;;;9.32;7.55;;;;;;;;;;5041485;28;20218;-76
2022/01/08 08:16:11;;;;;;;12.07;8.77;;;;;;;;;;5050180;28;20191;-76
2022/01/08 08:18:40;;;;;;;11.85;9.55;;;;;;;;;;5044809;28;20191;-76
2022/01/08 08:21:07;;;;;;;13.00;9.80;;;;;;;;;;5045389;28;20677;-77
2022/01/08 08:23:34;;;;;;;10.02;8.48;;;;;;;;;;5045391;28;20192;-77
2022/01/08 08:26:01;;;;;;;12.13;8.43;;;;;;;;;;5044551;28;20202;-76
2022/01/08 08:28:29;;;;;;;12.50;8.93;;;;;;;;;;5045331;28;20203;-77
2022/01/08 08:30:56;;;;;;;14.15;9.95;;;;;;;;;;5043619;28;20196;-76
2022/01/08 08:33:23;;;;;;;14.60;10.70;;;;;;;;;;5048404;28;20195;-77
2022/01/08 08:35:52;;;;;;;13.30;9.23;;;;;;;;;;5048838;28;20210;-76
2022/01/08 08:38:19;;;;;;;11.30;8.50;;;;;;;;;;5041599;28;20221;-76
2022/01/08 08:40:46;;;;;;;12.57;9.60;;;;;;;;;;5042277;28;20205;-76
2022/01/08 08:43:13;;;;;;;10.90;9.02;;;;;;;;;;5043689;28;20203;-76
2022/01/08 08:45:40;;;;;;;12.32;9.02;;;;;;;;;;5046426;28;20199;-76
2022/01/08 08:48:07;;;;;;;16.17;9.50;;;;;;;;;;5039920;28;20301;-76
2022/01/08 08:50:34;;;;;;;13.93;9.20;;;;;;;;;;5043197;28;20194;-77
2022/01/08 08:53:02;;;;;;;12.13;9.10;;;;;;;;;;5039854;28;20199;-78
2022/01/08 08:55:30;;;;;;;10.60;8.55;;;;;;;;;;5036326;28;20682;-79
2022/01/08 08:57:57;;;;;;;15.77;9.43;;;;;;;;;;5038289;28;20215;-77
2022/01/08 09:00:25;;;;;;;14.80;10.40;;;;;;;;;;5044979;28;20195;-79
2022/01/08 09:02:52;;;;;;;12.25;9.60;;;;;;;;;;5040300;28;20689;-79
2022/01/08 09:05:19;;;;;;;14.23;10.60;;;;;;;;;;5039879;28;20222;-79
2022/01/08 09:07:46;;;;;;;16.30;9.27;;;;;;;;;;5049443;28;20720;-78
2022/01/08 09:10:15;;;;;;;12.65;8.75;;;;;;;;;;5032808;28;20645;-76
2022/01/08 09:12:43;;;;;;;13.50;9.68;;;;;;;;;;5036144;28;20211;-77
2022/01/08 09:15:14;;;;;;;11.73;9.05;;;;;;;;;;5049916;28;20206;-76
2022/01/08 09:17:41;;;;;;;15.90;10.07;;;;;;;;;;5046900;28;20234;-77
2022/01/08 09:20:09;;;;;;;10.80;8.38;;;;;;;;;;5042828;28;20206;-77
2022/01/08 09:22:36;;;;;;;13.88;9.35;;;;;;;;;;5048029;28;20186;-77
2022/01/08 09:25:04;;;;;;;15.43;9.23;;;;;;;;;;5043676;28;20210;-77
2022/01/08 09:27:32;;;;;;;15.18;10.48;;;;;;;;;;5048696;28;20222;-78
2022/01/08 09:30:00;;;;;;;12.68;9.18;;;;;;;;;;5039799;28;20199;-76
2022/01/08 09:32:27;;;;;;;13.75;8.65;;;;;;;;;;5041113;28;20207;-77
2022/01/08 09:34:54;;;;;;;12.80;9.70;;;;;;;;;;5044799;28;20580;-77
2022/01/08 09:37:21;;;;;;;10.68;9.60;;;;;;;;;;5043466;28;20196;-77
2022/01/08 09:39:48;;;;;;;15.23;10.30;;;;;;;;;;5049660;28;20203;-77
2022/01/08 09:42:15;;;;;;;12.80;9.30;;;;;;;;;;5035776;28;20199;-77
2022/01/08 09:44:44;;;;;;;15.98;10.05;;;;;;;;;;5031551;28;20674;-77
2022/01/08 09:47:12;;;;;;;20.48;13.02;;;;;;;;;;5035499;28;20219;-80
2022/01/08 09:49:39;;;;;;;19.35;13.32;;;;;;;;;;5038608;28;20213;-80
2022/01/08 09:52:07;;;;;;;16.17;11.98;;;;;;;;;;5048622;28;20198;-80
2022/01/08 09:54:34;;;;;;;16.23;11.10;;;;;;;;;;5039388;28;20198;-80
2022/01/08 09:57:02;;;;;;;15.07;9.57;;;;;;;;;;5052973;28;20981;-80
2022/01/08 09:59:31;;;;;;;16.40;12.35;;;;;;;;;;5063042;28;20729;-79
2022/01/08 10:02:00;;;;;;;22.00;11.43;;;;;;;;;;5061414;28;20227;-79
2022/01/08 10:04:35;;;;;;;16.55;11.27;;;;;;;;;;5068323;28;20194;-79
2022/01/08 10:07:15;;;;;;;20.38;11.00;;;;;;;;;;5063934;28;20290;-79
2022/01/08 10:09:58;;;;;;;14.02;11.88;;;;;;;;;;5056718;28;20194;-79
2022/01/08 10:12:38;;;;;;;14.73;10.57;;;;;;;;;;5059629;28;20185;-79
2022/01/08 10:17:54;;;;;;;17.90;12.48;;;;;;;;;;5063322;28;20302;-79
2022/01/08 10:20:32;;;;;;;18.55;10.85;;;;;;;;;;5057709;28;20205;-79
2022/01/08 10:23:00;;;;;;;18.00;10.95;;;;;;;;;;5064976;28;20199;-80
2022/01/08 10:25:27;;;;;;;17.05;9.73;;;;;;;;;;5065885;28;20194;-79
2022/01/08 10:27:55;;;;;;;20.92;8.55;;;;;;;;;;5065059;28;20231;-79
2022/01/08 10:30:25;;;;;;;12.77;9.25;;;;;;;;;;5067902;28;20723;-79
2022/01/08 10:32:59;;;;;;;10.52;8.73;;;;;;;;;;5064583;28;20203;-79
2022/01/08 10:35:41;;;;;;;13.77;9.57;;;;;;;;;;5065672;28;20225;-79
2022/01/08 10:38:16;;;;;;;11.32;9.32;;;;;;;;;;5058107;28;20194;-79
2022/01/08 10:40:44;;;;;;;10.25;8.30;;;;;;;;;;5066328;28;20248;-80
2022/01/08 10:43:22;;;;;;;14.02;8.95;;;;;;;;;;5070362;28;20214;-79
2022/01/08 10:45:57;;;;;;;11.35;8.82;;;;;;;;;;5067796;28;20197;-80
2022/01/08 10:48:29;;;;;;;14.48;10.15;;;;;;;;;;5059985;28;20207;-79
2022/01/08 10:51:12;;;;;;;12.73;9.20;;;;;;;;;;5067462;28;20275;-80
2022/01/08 10:53:59;;;;;;;10.90;8.40;;;;;;;;;;5052032;28;20207;-79
2022/01/08 10:56:29;;;;;;;10.48;9.15;;;;;;;;;;5051758;28;20694;-80
2022/01/08 10:59:01;;;;;;;21.80;9.95;;;;;;;;;;5058755;28;20201;-79
2022/01/08 11:01:39;;;;;;;16.02;9.05;;;;;;;;;;5066107;28;20708;-79
2022/01/08 11:04:09;;;;;;;15.50;9.75;;;;;;;;;;5057824;28;20250;-79
2022/01/08 11:06:49;;;;;;;11.25;9.10;;;;;;;;;;5071848;28;20218;-79
2022/01/08 11:09:17;;;;;;;15.07;10.02;;;;;;;;;;5041022;28;20203;-79
2022/01/08 11:11:45;;;;;;;10.90;8.30;;;;;;;;;;5060032;28;20199;-80
2022/01/08 11:14:23;;;;;;;8.77;7.70;;;;;;;;;;5064898;28;20226;-79
2022/01/08 11:16:51;;;;;;;11.77;7.97;;;;;;;;;;5072496;28;20198;-80
2022/01/08 11:19:20;;;;;;;10.40;8.27;;;;;;;;;;5056147;28;20199;-80
2022/01/08 11:21:48;;;;;;;11.18;7.25;;;;;;;;;;5060404;28;20217;-80
2022/01/08 11:24:18;;;;;;;13.52;9.05;;;;;;;;;;5056607;28;20199;-80
2022/01/08 11:26:47;;;;;;;12.63;8.18;;;;;;;;;;5068704;28;20259;-80
2022/01/08 11:29:18;;;;;;;9.63;8.45;;;;;;;;;;5067748;28;20644;-80
2022/01/08 11:31:47;;;;;;;12.85;9.32;;;;;;;;;;5066164;28;20196;-80
2022/01/08 11:34:15;;;;;;;11.00;7.45;;;;;;;;;;5062284;28;20677;-80
2022/01/08 11:36:49;;;;;;;13.80;8.10;;;;;;;;;;5057720;28;20199;-78
2022/01/08 11:39:16;;;;;;;9.45;8.07;;;;;;;;;;5049069;28;20229;-79
2022/01/08 11:41:45;;;;;;;12.60;7.90;;;;;;;;;;5046444;28;20200;-80
2022/01/08 11:44:13;;;;;;;13.18;8.07;;;;;;;;;;5053935;28;20206;-80
2022/01/08 11:46:40;;;;;;;9.43;7.22;;;;;;;;;;5052040;28;20195;-79
2022/01/08 11:49:08;;;;;;;10.10;7.03;;;;;;;;;;5039446;28;20868;-80
2022/01/08 11:51:35;;;;;;;7.85;7.05;;;;;;;;;;5040260;28;20195;-80
2022/01/08 11:54:04;;;;;;;14.57;9.20;;;;;;;;;;5040830;28;20234;-81
2022/01/08 11:56:32;;;;;;;13.18;8.13;;;;;;;;;;5047343;28;20221;-80
2022/01/08 11:59:03;;;;;;;11.98;8.02;;;;;;;;;;5053005;28;20710;-80
2022/01/08 12:01:30;;;;;;;10.45;7.43;;;;;;;;;;5049714;28;20665;-80
2022/01/08 12:03:58;;;;;;;10.20;6.30;;;;;;;;;;5051628;28;20210;-80
2022/01/08 12:06:37;;;;;;;9.27;7.97;;;;;;;;;;5037126;28;20720;-80
2022/01/08 12:09:20;;;;;;;12.07;6.88;;;;;;;;;;5034278;28;20219;-77
2022/01/08 12:11:52;;;;;;;12.00;6.75;;;;;;;;;;5048492;28;20205;-77
2022/01/08 12:14:20;;;;;;;9.35;6.43;;;;;;;;;;5044664;28;20578;-77
2022/01/08 12:16:48;;;;;;;9.88;6.55;;;;;;;;;;5036814;28;20198;-78
2022/01/08 12:19:32;;;;;;;9.07;7.43;;;;;;;;;;5041130;28;20195;-77
2022/01/08 12:22:00;;;;;;;7.60;5.55;;;;;;;;;;5056815;28;20649;-77
2022/01/08 12:24:35;;;;;;;12.52;6.10;;;;;;;;;;5050022;28;20198;-77
2022/01/08 12:27:04;;;;;;;10.95;5.95;;;;;;;;;;5048024;28;20199;-77
2022/01/08 12:29:37;;;;;;;8.32;5.90;;;;;;;;;;5047554;28;20525;-77
2022/01/08 12:35:24;;;;;;;7.70;6.10;;;;;;;;;;5041659;28;20211;-77
2022/01/08 12:37:52;;;;;;;6.82;5.55;;;;;;;;;;5037356;28;20200;-77
2022/01/08 12:40:40;;;;;;;9.93;5.40;;;;;;;;;;5037249;28;20565;-76
2022/01/08 12:43:17;;;;;;;10.48;5.60;;;;;;;;;;5045543;28;20198;-77
2022/01/08 12:45:46;;;;;;;5.85;4.72;;;;;;;;;;5043944;28;20204;-77
2022/01/08 12:48:14;;;;;;;6.70;5.97;;;;;;;;;;5041720;28;20233;-77
2022/01/08 12:50:41;;;;;;;7.82;5.18;;;;;;;;;;5035262;28;20581;-78
2022/01/08 12:53:22;;;;;;;8.95;5.10;;;;;;;;;;5042843;28;20200;-77
2022/01/08 12:56:19;;;;;;;5.28;4.60;;;;;;;;;;5042705;28;20211;-76
2022/01/08 12:58:50;;;;;;;5.55;3.85;;;;;;;;;;4999231;28;20298;-76
2022/01/08 13:01:19;;;;;;;9.15;4.35;;;;;;;;;;5031099;28;20211;-76
2022/01/08 13:03:47;;;;;;;10.02;5.10;;;;;;;;;;5044820;28;20708;-77
2022/01/08 13:06:22;;;;;;;5.32;4.03;;;;;;;;;;5049092;28;20214;-76
2022/01/08 13:08:49;;;;;;;5.22;4.10;;;;;;;;;;5034551;28;20226;-77
2022/01/08 13:11:18;;;;;;;7.38;4.93;;;;;;;;;;5039556;28;20635;-76
2022/01/08 13:13:46;;;;;;;4.78;3.65;;;;;;;;;;5038885;28;20701;-78
2022/01/08 13:16:15;;;;;;;4.38;3.65;;;;;;;;;;5044241;28;20684;-78
2022/01/08 13:18:48;;;;;;;6.38;4.30;;;;;;;;;;5039936;28;20202;-77
2022/01/08 13:21:15;;;;;;;8.60;4.70;;;;;;;;;;5037782;28;20633;-77
2022/01/08 13:23:46;;;;;;;8.80;4.65;;;;;;;;;;5021612;28;20676;-76
2022/01/08 13:26:13;;;;;;;5.90;3.55;;;;;;;;;;5037340;28;20199;-76
2022/01/08 13:28:42;;;;;;;5.07;4.05;;;;;;;;;;5034017;28;20222;-76
2022/01/08 13:31:09;;;;;;;7.32;3.45;;;;;;;;;;5034468;28;20682;-77
2022/01/08 13:33:40;;;;;;;5.80;3.30;;;;;;;;;;5033079;28;20207;-77
2022/01/08 13:36:09;;;;;;;8.75;3.90;;;;;;;;;;5036051;28;20227;-76
2022/01/08 13:38:37;;;;;;;4.43;3.95;;;;;;;;;;5035926;28;20725;-77
2022/01/08 13:41:08;;;;;;;8.40;4.10;;;;;;;;;;5037233;28;20697;-77
2022/01/08 13:43:51;;;;;;;4.93;3.45;;;;;;;;;;5039253;28;20285;-77
2022/01/08 13:46:18;;;;;;;6.60;3.88;;;;;;;;;;5042065;28;20199;-77
2022/01/08 13:48:47;;;;;;;6.75;2.88;;;;;;;;;;5043149;28;20230;-77
2022/01/08 13:51:15;;;;;;;8.35;3.10;;;;;;;;;;5035788;28;20306;-78
2022/01/08 13:53:42;;;;;;;6.40;2.50;;;;;;;;;;5038401;28;20710;-76
2022/01/08 13:56:10;;;;;;;4.55;3.22;;;;;;;;;;5033170;28;20569;-77
2022/01/08 13:58:37;;;;;;;4.78;3.10;;;;;;;;;;5034139;28;20194;-77
2022/01/08 14:01:06;;;;;;;4.50;3.35;;;;;;;;;;5048026;28;20628;-76
2022/01/08 14:03:34;;;;;;;3.05;2.47;;;;;;;;;;5032339;28;20198;-77
2022/01/08 14:06:04;;;;;;;3.75;2.72;;;;;;;;;;5029343;28;20230;-76
2022/01/08 14:08:31;;;;;;;8.68;4.00;;;;;;;;;;5045087;28;20206;-76
2022/01/08 14:10:59;;;;;;;4.30;3.05;;;;;;;;;;5056346;28;20214;-77
2022/01/08 14:13:27;;;;;;;4.93;3.00;;;;;;;;;;5037007;28;20257;-77
2022/01/08 14:16:00;;;;;;;3.17;2.88;;;;;;;;;;5044788;28;20661;-78
2022/01/08 14:18:29;;;;;;;4.50;2.70;;;;;;;;;;5038897;28;20195;-77
2022/01/08 14:20:57;;;;;;;5.60;3.10;;;;;;;;;;5044241;28;20206;-77
2022/01/08 14:23:29;;;;;;;6.57;2.42;;;;;;;;;;5040806;28;20663;-76
2022/01/08 14:25:57;;;;;;;2.67;2.30;;;;;;;;;;5031683;28;20658;-77
2022/01/08 14:28:26;;;;;;;3.58;3.10;;;;;;;;;;5031420;28;20223;-77
2022/01/08 14:31:10;;;;;;;6.60;3.15;;;;;;;;;;5040773;28;20265;-77
2022/01/08 14:33:37;;;;;;;3.35;2.22;;;;;;;;;;5040363;28;20211;-77
2022/01/08 14:36:05;;;;;;;3.70;2.60;;;;;;;;;;5042671;28;20199;-77
2022/01/08 14:38:47;;;;;;;3.10;2.30;;;;;;;;;;5044000;28;20196;-77
2022/01/08 14:41:15;;;;;;;2.85;2.15;;;;;;;;;;5039260;28;20203;-77
2022/01/08 14:43:42;;;;;;;4.60;2.80;;;;;;;;;;5037229;28;20204;-77
2022/01/08 14:46:13;;;;;;;3.92;2.33;;;;;;;;;;5039428;28;20200;-76
2022/01/08 14:48:41;;;;;;;5.07;2.95;;;;;;;;;;5045811;28;20204;-77
2022/01/08 14:51:09;;;;;;;4.85;2.70;;;;;;;;;;5046736;28;20197;-76
2022/01/08 14:53:37;;;;;;;2.80;2.53;;;;;;;;;;5044316;28;20593;-77
2022/01/08 14:56:07;;;;;;;7.55;3.40;;;;;;;;;;5052627;28;20248;-77
2022/01/08 14:58:38;;;;;;;3.45;1.85;;;;;;;;;;5043013;28;20196;-77
2022/01/08 15:01:05;;;;;;;2.88;2.42;;;;;;;;;;5042377;28;20286;-77
2022/01/08 15:03:33;;;;;;;2.80;2.60;;;;;;;;;;5043787;28;20207;-76
2022/01/08 15:06:01;;;;;;;5.85;3.08;;;;;;;;;;5047575;28;20766;-77
2022/01/08 15:08:28;;;;;;;2.20;2.00;;;;;;;;;;5034674;28;20298;-77
2022/01/08 15:10:55;;;;;;;3.25;2.00;;;;;;;;;;5049514;28;20645;-77